Time;durP1;ratioP1;P1;durP2;ratioP2;P2;SDS_P1;SDS_P2;PMS_P1;PMS_P2;Temp;Humidity;BMP_temperature;BMP_pressure;BME280_temperature;BME280_humidity;BME280_pressure;Samples;Min_cycle;Max_cycle;Signal;HPM_P1;HPM_P2
2022/01/25 00:32:21;;;;;;;75.60;31.27;;;5.30;99.90;;;;;;5075099;28;20225;-82
2022/01/25 00:34:48;;;;;;;80.67;33.50;;;5.30;99.90;;;;;;5057478;28;20316;-84
2022/01/25 00:37:15;;;;;;;81.97;32.87;;;5.30;99.90;;;;;;5071738;28;20700;-82
2022/01/25 00:39:42;;;;;;;86.57;35.30;;;5.40;99.90;;;;;;5061414;28;20691;-83
2022/01/25 00:42:09;;;;;;;84.63;34.70;;;5.40;99.90;;;;;;5071157;28;20212;-84
2022/01/25 00:44:39;;;;;;;83.63;33.40;;;5.40;99.90;;;;;;5078264;28;20271;-83
2022/01/25 00:47:08;;;;;;;82.90;33.80;;;5.30;99.90;;;;;;5074916;28;20741;-83
2022/01/25 00:49:39;;;;;;;92.03;36.60;;;5.40;99.90;;;;;;5070463;28;20675;-83
2022/01/25 00:53:53;;;;;;;82.33;34.23;;;5.40;99.90;;;;;;5059324;28;20213;-83
2022/01/25 00:55:14;;;;;;;92.50;35.27;;;5.30;99.90;;;;;;5068760;28;20257;-82
2022/01/25 00:57:43;;;;;;;87.30;33.80;;;5.40;99.90;;;;;;5053761;28;20307;-83
2022/01/25 01:00:11;;;;;;;97.37;36.50;;;5.30;99.90;;;;;;5046871;28;20643;-83
2022/01/25 01:02:38;;;;;;;90.37;35.70;;;5.30;99.90;;;;;;5073412;28;20238;-83
2022/01/25 01:05:06;;;;;;;87.30;34.80;;;5.30;99.90;;;;;;5070532;28;20217;-83
2022/01/25 01:07:33;;;;;;;87.93;34.30;;;5.30;99.90;;;;;;5065012;28;20287;-83
2022/01/25 01:10:01;;;;;;;86.10;34.97;;;5.30;99.90;;;;;;5073812;28;20283;-81
2022/01/25 01:15:31;;;;;;;85.93;33.60;;;5.40;99.90;;;;;;5076091;28;20347;-82
2022/01/25 01:29:11;;;;;;;89.17;34.80;;;5.40;99.90;;;;;;5071055;28;20297;-83
2022/01/25 01:42:11;;;;;;;93.37;35.97;;;5.30;99.90;;;;;;5071388;28;20730;-83
2022/01/25 01:45:31;;;;;;;93.73;35.67;;;5.30;99.90;;;;;;5068847;28;20599;-83
2022/01/25 01:47:45;;;;;;;89.60;35.37;;;5.30;99.90;;;;;;5061602;28;20308;-83
2022/01/25 01:50:16;;;;;;;89.57;33.77;;;5.20;99.90;;;;;;5071183;28;20231;-84
2022/01/25 01:52:42;;;;;;;91.10;33.67;;;5.20;99.90;;;;;;5068132;28;20215;-83
2022/01/25 01:55:09;;;;;;;90.47;34.43;;;5.20;99.90;;;;;;5075083;28;20271;-84
2022/01/25 01:57:36;;;;;;;92.60;34.07;;;5.20;99.90;;;;;;5072646;28;20290;-84
2022/01/25 02:00:05;;;;;;;92.10;34.67;;;5.20;99.90;;;;;;5058737;28;20690;-83
2022/01/25 02:02:32;;;;;;;88.67;33.87;;;5.20;99.90;;;;;;5050626;28;20216;-83
2022/01/25 02:04:59;;;;;;;89.00;33.23;;;5.20;99.90;;;;;;5048493;28;20213;-82
2022/01/25 02:07:26;;;;;;;87.77;33.50;;;5.20;99.90;;;;;;5055644;28;20201;-83
2022/01/25 02:09:53;;;;;;;94.37;34.30;;;5.20;99.90;;;;;;5070291;28;20221;-83
2022/01/25 02:12:20;;;;;;;84.07;33.57;;;5.30;99.90;;;;;;5056480;28;20270;-83
2022/01/25 02:14:47;;;;;;;86.17;34.10;;;5.20;99.90;;;;;;5073405;28;20258;-83
2022/01/25 02:22:56;;;;;;;88.10;34.10;;;5.20;99.90;;;;;;5071596;28;20250;-82
2022/01/25 02:25:24;;;;;;;89.27;34.53;;;5.10;99.90;;;;;;5050920;28;20206;-83
2022/01/25 02:27:51;;;;;;;89.27;34.50;;;5.10;99.90;;;;;;5049324;28;20278;-83
2022/01/25 02:30:19;;;;;;;93.67;36.97;;;5.10;99.90;;;;;;5065132;28;20308;-84
2022/01/25 02:32:46;;;;;;;90.27;34.23;;;5.10;99.90;;;;;;5068008;28;20222;-84
2022/01/25 02:35:13;;;;;;;94.60;35.13;;;5.10;99.90;;;;;;5051579;28;20306;-83
2022/01/25 02:37:40;;;;;;;89.97;34.80;;;5.10;99.90;;;;;;5060514;28;20235;-83
2022/01/25 02:40:07;;;;;;;92.00;34.77;;;5.10;99.90;;;;;;5048721;28;20206;-83
2022/01/25 02:42:34;;;;;;;89.60;34.20;;;5.10;99.90;;;;;;5076588;28;20215;-83
2022/01/25 02:45:02;;;;;;;94.37;35.27;;;5.20;99.90;;;;;;5053667;28;20276;-83
2022/01/25 02:50:14;;;;;;;88.70;33.73;;;5.10;99.90;;;;;;5052795;28;20316;-83
2022/01/25 02:52:41;;;;;;;94.53;35.33;;;5.10;99.90;;;;;;5048266;28;20290;-84
2022/01/25 02:55:08;;;;;;;96.20;35.50;;;5.10;99.90;;;;;;5051248;28;20337;-83
2022/01/25 02:57:35;;;;;;;89.00;33.40;;;5.10;99.90;;;;;;5047847;28;20933;-84
2022/01/25 03:00:07;;;;;;;86.70;32.50;;;5.10;99.90;;;;;;5050625;28;20261;-82
2022/01/25 03:02:35;;;;;;;87.87;34.53;;;5.10;99.90;;;;;;5052364;28;20276;-82
2022/01/25 03:05:03;;;;;;;91.83;34.20;;;5.10;99.90;;;;;;5046943;28;20202;-82
2022/01/25 03:07:30;;;;;;;86.17;32.97;;;5.10;99.90;;;;;;5053948;28;20224;-83
2022/01/25 03:09:58;;;;;;;92.50;34.77;;;5.10;99.90;;;;;;5051517;28;20242;-83
2022/01/25 03:12:40;;;;;;;86.93;32.73;;;5.10;99.90;;;;;;5057507;28;20302;-82
2022/01/25 03:17:53;;;;;;;81.50;32.70;;;5.10;99.90;;;;;;5047620;28;20225;-83
2022/01/25 03:20:33;;;;;;;88.63;33.47;;;5.00;99.90;;;;;;5050534;28;20283;-85
2022/01/25 03:23:05;;;;;;;86.07;33.37;;;5.10;99.90;;;;;;5048652;28;20241;-84
2022/01/25 03:25:32;;;;;;;86.93;33.93;;;5.10;99.90;;;;;;5054455;28;20274;-82
2022/01/25 03:27:59;;;;;;;88.77;34.87;;;5.10;99.90;;;;;;5046796;28;20212;-83
2022/01/25 03:30:32;;;;;;;95.30;35.23;;;5.00;99.90;;;;;;5051312;28;20212;-82
2022/01/25 03:32:59;;;;;;;88.97;33.30;;;5.00;99.90;;;;;;5053070;28;20220;-83
2022/01/25 03:35:26;;;;;;;88.53;33.80;;;5.10;99.90;;;;;;5051038;28;20299;-83
2022/01/25 03:37:53;;;;;;;87.93;34.53;;;5.10;99.90;;;;;;5052081;28;20209;-82
2022/01/25 03:40:20;;;;;;;94.53;35.83;;;5.10;99.90;;;;;;5049642;28;20251;-83
2022/01/25 03:42:48;;;;;;;92.33;33.73;;;5.10;99.90;;;;;;5049708;28;20204;-83
2022/01/25 03:45:20;;;;;;;87.17;33.63;;;5.00;99.90;;;;;;5074717;28;20698;-83
2022/01/25 03:49:48;;;;;;;85.27;33.80;;;5.00;99.90;;;;;;5048982;28;20759;-83
2022/01/25 03:50:48;;;;;;;86.17;33.53;;;5.00;99.90;;;;;;5068512;28;20310;-83
2022/01/25 03:53:17;;;;;;;91.67;33.33;;;5.00;99.90;;;;;;5048163;28;20269;-84
2022/01/25 03:55:50;;;;;;;94.07;34.73;;;5.00;99.90;;;;;;5057822;28;20223;-84
2022/01/25 03:58:17;;;;;;;89.73;34.90;;;5.00;99.90;;;;;;5070842;28;20227;-83
2022/01/25 04:00:44;;;;;;;87.87;34.37;;;4.90;99.90;;;;;;5071743;28;20637;-83
2022/01/25 04:03:26;;;;;;;85.33;34.50;;;4.90;99.90;;;;;;5048429;28;20259;-82
2022/01/25 04:05:55;;;;;;;85.80;33.93;;;5.00;99.90;;;;;;5071930;28;20318;-82
2022/01/25 04:08:22;;;;;;;84.83;34.40;;;4.60;99.90;;;;;;5079435;28;20295;-84
2022/01/25 04:10:49;;;;;;;97.07;37.20;;;4.90;99.90;;;;;;5051879;28;20200;-83
2022/01/25 04:13:16;;;;;;;88.53;36.10;;;4.90;99.90;;;;;;5072845;28;20565;-84
2022/01/25 04:15:45;;;;;;;94.97;33.93;;;5.00;99.90;;;;;;5052609;28;20259;-82
2022/01/25 04:20:42;;;;;;;88.60;34.27;;;6.00;99.90;;;;;;5059533;28;20215;-82
2022/01/25 04:25:54;;;;;;;87.63;33.83;;;5.70;99.90;;;;;;5074415;28;20219;-83
2022/01/25 04:28:21;;;;;;;91.27;34.97;;;4.80;99.90;;;;;;5073336;28;20307;-83
2022/01/25 04:30:48;;;;;;;82.93;33.60;;;4.80;99.90;;;;;;5072444;28;20200;-83
2022/01/25 04:33:22;;;;;;;80.13;33.53;;;4.90;99.90;;;;;;5055478;28;20307;-82
2022/01/25 04:49:42;;;;;;;87.97;33.17;;;4.90;99.90;;;;;;5072992;28;20270;-83
2022/01/25 04:52:14;;;;;;;87.73;33.13;;;4.90;99.90;;;;;;5062329;28;20296;-83
2022/01/25 04:57:32;;;;;;;84.57;33.00;;;4.90;99.90;;;;;;5079685;28;20569;-82
2022/01/25 05:00:04;;;;;;;87.60;32.83;;;4.90;99.90;;;;;;5055236;28;20193;-82
2022/01/25 05:02:45;;;;;;;91.90;35.17;;;4.80;99.90;;;;;;5055948;28;20687;-82
2022/01/25 05:05:29;;;;;;;85.90;32.33;;;4.90;99.90;;;;;;5076000;28;20269;-81
2022/01/25 05:08:18;;;;;;;88.83;34.60;;;4.90;99.90;;;;;;5072174;28;20374;-82
2022/01/25 05:10:59;;;;;;;92.80;34.53;;;4.90;99.90;;;;;;5068716;28;20212;-82
2022/01/25 05:19:24;;;;;;;80.50;31.83;;;4.90;99.90;;;;;;5067683;28;20703;-84
2022/01/25 05:24:38;;;;;;;92.43;33.70;;;4.90;99.90;;;;;;5075649;28;20209;-82
2022/01/25 05:27:07;;;;;;;88.73;34.80;;;4.90;99.90;;;;;;5056415;28;20223;-83
2022/01/25 05:29:34;;;;;;;92.00;35.00;;;4.90;99.90;;;;;;5066212;28;20652;-82
2022/01/25 05:32:01;;;;;;;86.83;37.00;;;4.90;99.90;;;;;;5054614;28;20302;-82
2022/01/25 05:34:29;;;;;;;90.40;32.73;;;4.90;99.90;;;;;;5070934;28;20217;-82
2022/01/25 05:36:56;;;;;;;92.77;34.77;;;4.90;99.90;;;;;;5053661;28;21018;-81
2022/01/25 05:39:28;;;;;;;85.43;31.63;;;4.80;99.90;;;;;;5072063;28;20559;-82
2022/01/25 05:41:58;;;;;;;90.50;32.43;;;4.80;99.90;;;;;;5066673;28;20219;-82
2022/01/25 05:44:42;;;;;;;89.73;34.13;;;4.80;99.90;;;;;;5072954;28;20232;-82
2022/01/25 05:47:13;;;;;;;90.33;34.67;;;4.80;99.90;;;;;;5055126;28;20266;-84
2022/01/25 05:49:45;;;;;;;91.30;34.03;;;4.90;99.90;;;;;;5049177;28;20576;-83
2022/01/25 05:52:12;;;;;;;86.90;32.37;;;4.80;99.90;;;;;;5077935;28;20224;-83
2022/01/25 05:54:40;;;;;;;90.07;32.33;;;4.80;99.90;;;;;;5081987;28;20243;-82
2022/01/25 05:57:07;;;;;;;87.73;33.70;;;4.80;99.90;;;;;;5071793;28;20696;-83
2022/01/25 05:59:36;;;;;;;90.63;33.37;;;4.80;99.90;;;;;;5057221;28;20240;-84
2022/01/25 06:02:05;;;;;;;90.57;33.83;;;4.90;99.90;;;;;;5070275;28;20565;-82
2022/01/25 06:04:33;;;;;;;93.87;35.17;;;4.90;99.90;;;;;;5052591;28;20253;-83
2022/01/25 06:06:59;;;;;;;87.00;34.07;;;4.90;99.90;;;;;;5067245;28;20283;-83
2022/01/25 06:09:26;;;;;;;88.30;33.37;;;4.90;99.90;;;;;;5063246;28;20302;-83
2022/01/25 06:11:55;;;;;;;87.13;33.30;;;5.00;99.90;;;;;;5070327;28;20304;-84
2022/01/25 06:14:22;;;;;;;87.07;33.97;;;4.80;99.90;;;;;;5049268;28;20207;-83
2022/01/25 06:16:49;;;;;;;87.63;33.43;;;4.80;99.90;;;;;;5056806;28;20224;-84
2022/01/25 06:19:16;;;;;;;85.33;32.20;;;4.80;99.90;;;;;;5051333;28;20262;-83
2022/01/25 06:21:43;;;;;;;89.90;32.83;;;4.80;99.90;;;;;;5059979;28;20747;-83
2022/01/25 06:24:09;;;;;;;90.07;33.00;;;4.80;99.90;;;;;;5056664;28;20204;-84
2022/01/25 06:26:36;;;;;;;84.33;32.37;;;4.80;99.90;;;;;;5049108;28;20243;-75
2022/01/25 06:29:03;;;;;;;89.77;34.17;;;4.80;99.90;;;;;;5065567;28;20211;-80
2022/01/25 06:31:31;;;;;;;91.37;34.43;;;4.70;99.90;;;;;;5063399;28;20242;-85
2022/01/25 06:34:00;;;;;;;92.17;32.73;;;4.80;99.90;;;;;;5048918;28;20227;-85
2022/01/25 06:36:27;;;;;;;87.73;33.03;;;4.80;99.90;;;;;;5050256;28;20220;-87
2022/01/25 06:38:54;;;;;;;87.37;32.47;;;4.60;99.90;;;;;;5057203;28;20962;-77
2022/01/25 06:41:25;;;;;;;82.83;31.90;;;4.60;99.90;;;;;;5069789;28;20208;-80
2022/01/25 06:43:52;;;;;;;93.50;33.73;;;4.70;99.90;;;;;;5071223;28;20255;-81
2022/01/25 06:46:19;;;;;;;95.03;34.83;;;4.70;99.90;;;;;;5077408;28;20613;-79
2022/01/25 06:48:47;;;;;;;91.10;34.17;;;4.60;99.90;;;;;;5065399;28;20237;-80
2022/01/25 06:51:14;;;;;;;88.17;32.50;;;4.60;99.90;;;;;;5069883;28;20618;-79
2022/01/25 06:53:41;;;;;;;88.43;30.73;;;4.60;99.90;;;;;;5059084;28;20595;-80
2022/01/25 06:56:08;;;;;;;89.50;32.17;;;4.60;99.90;;;;;;5055609;28;20283;-80
2022/01/25 06:58:35;;;;;;;86.73;31.97;;;4.60;99.90;;;;;;5066250;28;20580;-80
2022/01/25 07:01:02;;;;;;;90.37;33.13;;;4.60;99.90;;;;;;5073110;28;20208;-80
2022/01/25 07:03:29;;;;;;;87.90;32.83;;;4.60;99.90;;;;;;5076156;28;20228;-80
2022/01/25 07:05:56;;;;;;;84.87;32.97;;;4.60;99.90;;;;;;5047835;28;20196;-79
2022/01/25 07:08:23;;;;;;;86.17;31.23;;;4.60;99.90;;;;;;5070459;28;20236;-79
2022/01/25 07:10:54;;;;;;;83.80;31.90;;;4.60;99.90;;;;;;5051946;28;20235;-80
2022/01/25 07:13:21;;;;;;;94.70;31.97;;;4.60;99.90;;;;;;5045608;28;20306;-81
2022/01/25 07:15:47;;;;;;;83.50;31.83;;;4.70;99.90;;;;;;5065829;28;20237;-80
2022/01/25 07:18:15;;;;;;;89.53;32.47;;;4.70;99.90;;;;;;5069839;28;20303;-80
2022/01/25 07:20:42;;;;;;;90.97;33.93;;;4.60;99.90;;;;;;5064468;28;20231;-80
2022/01/25 07:23:12;;;;;;;86.30;33.70;;;4.70;99.90;;;;;;5067483;28;20262;-81
2022/01/25 07:25:39;;;;;;;87.60;33.27;;;4.70;99.90;;;;;;5072607;28;20642;-80
2022/01/25 07:28:06;;;;;;;91.27;34.47;;;4.60;99.90;;;;;;5069791;28;20213;-79
2022/01/25 07:30:32;;;;;;;90.57;33.83;;;4.60;99.90;;;;;;5074172;28;20210;-80
2022/01/25 07:33:05;;;;;;;85.90;32.07;;;4.60;99.90;;;;;;5067121;28;20274;-80
2022/01/25 07:35:47;;;;;;;91.00;33.17;;;4.70;99.90;;;;;;5069571;28;20216;-79
2022/01/25 07:38:16;;;;;;;90.10;32.70;;;4.70;99.90;;;;;;5065408;28;20212;-81
2022/01/25 07:40:44;;;;;;;90.03;33.87;;;4.70;99.90;;;;;;5068402;28;20239;-80
2022/01/25 07:43:11;;;;;;;95.53;34.57;;;4.70;99.90;;;;;;5075763;28;20217;-80
2022/01/25 07:45:50;;;;;;;87.90;32.63;;;4.70;99.90;;;;;;5078055;28;20305;-81
2022/01/25 07:48:24;;;;;;;89.03;33.87;;;4.60;99.90;;;;;;5078356;28;20217;-80
2022/01/25 07:50:54;;;;;;;89.53;32.50;;;4.60;99.90;;;;;;5076389;28;20200;-81
2022/01/25 07:53:20;;;;;;;81.17;32.17;;;4.60;99.90;;;;;;5071788;28;20211;-81
2022/01/25 07:55:47;;;;;;;92.17;33.80;;;4.60;99.90;;;;;;5058048;28;20294;-81
2022/01/25 07:58:16;;;;;;;89.50;31.97;;;4.60;99.90;;;;;;5075225;28;20654;-81
2022/01/25 08:00:43;;;;;;;83.57;31.40;;;4.60;99.90;;;;;;5076964;28;20212;-81
2022/01/25 08:03:10;;;;;;;86.23;33.43;;;4.60;99.90;;;;;;5044132;28;20216;-81
2022/01/25 08:05:51;;;;;;;90.57;33.60;;;4.70;99.90;;;;;;5061983;28;20275;-80
2022/01/25 08:08:36;;;;;;;92.80;33.83;;;4.70;99.90;;;;;;5073776;28;20203;-82
2022/01/25 08:11:11;;;;;;;87.63;32.53;;;4.70;99.90;;;;;;5076803;28;20212;-82
2022/01/25 08:14:12;;;;;;;93.50;30.90;;;4.60;99.90;;;;;;5025055;28;20212;-83
2022/01/25 08:16:44;;;;;;;87.23;32.17;;;4.60;99.90;;;;;;5073018;28;20232;-83
2022/01/25 08:19:27;;;;;;;87.87;32.43;;;4.60;99.90;;;;;;5066570;28;20211;-83
2022/01/25 08:22:03;;;;;;;89.77;32.17;;;4.60;99.90;;;;;;5073215;28;20223;-82
2022/01/25 08:24:54;;;;;;;91.80;31.97;;;4.50;99.90;;;;;;5080183;28;20295;-80
2022/01/25 08:27:35;;;;;;;86.83;32.67;;;4.50;99.90;;;;;;5069987;28;20667;-81
2022/01/25 08:30:07;;;;;;;85.03;31.67;;;4.60;99.90;;;;;;5068411;28;20206;-81
2022/01/25 08:32:51;;;;;;;94.53;32.63;;;4.60;99.90;;;;;;4983567;28;20222;-82
2022/01/25 08:35:35;;;;;;;83.30;32.47;;;4.60;99.90;;;;;;4989556;28;20238;-81
2022/01/25 08:38:19;;;;;;;94.93;33.27;;;4.70;99.90;;;;;;5022560;28;20229;-81
2022/01/25 08:41:01;;;;;;;92.90;34.10;;;4.60;99.90;;;;;;5053524;28;20219;-81
2022/01/25 08:43:35;;;;;;;94.27;33.50;;;4.40;99.90;;;;;;5082826;28;20277;-82
2022/01/25 08:46:23;;;;;;;96.40;34.20;;;4.50;99.90;;;;;;5076100;28;20299;-80
2022/01/25 08:49:00;;;;;;;88.50;32.33;;;4.40;99.90;;;;;;5071677;28;20192;-81
2022/01/25 08:51:41;;;;;;;99.37;32.80;;;4.50;99.90;;;;;;5029116;28;20211;-80
2022/01/25 08:54:28;;;;;;;96.63;32.73;;;4.50;99.90;;;;;;5064175;28;20208;-81
2022/01/25 08:57:09;;;;;;;88.07;31.67;;;4.60;99.90;;;;;;5057780;28;20224;-82
2022/01/25 09:00:08;;;;;;;84.70;32.40;;;4.60;99.90;;;;;;5008785;28;20235;-82
2022/01/25 09:02:35;;;;;;;92.97;33.77;;;4.70;99.90;;;;;;5056346;28;20219;-82
2022/01/25 09:05:03;;;;;;;92.73;33.23;;;4.70;99.90;;;;;;5051102;28;20210;-81
2022/01/25 09:07:30;;;;;;;91.13;32.00;;;4.60;99.90;;;;;;5075984;28;20355;-81
2022/01/25 09:09:57;;;;;;;98.27;33.53;;;4.60;99.90;;;;;;5049444;28;20637;-81
2022/01/25 09:12:28;;;;;;;94.67;33.40;;;4.50;99.90;;;;;;5077501;28;20305;-82
2022/01/25 09:14:55;;;;;;;82.70;31.37;;;4.50;99.90;;;;;;5079431;28;20252;-82
2022/01/25 09:17:22;;;;;;;83.13;32.20;;;4.50;99.90;;;;;;5070428;28;20592;-81
2022/01/25 09:19:52;;;;;;;88.27;32.27;;;4.50;99.90;;;;;;5068819;28;20526;-81
2022/01/25 09:22:24;;;;;;;89.00;32.90;;;4.50;99.90;;;;;;5069793;28;20277;-81
2022/01/25 09:25:12;;;;;;;88.97;31.37;;;4.50;99.90;;;;;;5070724;28;20202;-81
2022/01/25 09:27:43;;;;;;;90.83;32.00;;;4.50;99.90;;;;;;5052674;28;20242;-81
2022/01/25 09:30:10;;;;;;;96.07;33.07;;;4.50;99.90;;;;;;5073176;28;20218;-81
2022/01/25 09:32:37;;;;;;;90.17;32.63;;;4.50;99.90;;;;;;5058883;28;20594;-81
2022/01/25 09:35:05;;;;;;;85.83;32.27;;;4.60;99.90;;;;;;5070111;28;20219;-82
2022/01/25 09:37:31;;;;;;;89.67;32.57;;;4.60;99.90;;;;;;5056594;28;20251;-82
2022/01/25 09:39:58;;;;;;;88.63;31.40;;;4.60;99.90;;;;;;5078313;28;20375;-81
2022/01/25 09:42:28;;;;;;;95.63;32.93;;;4.70;99.90;;;;;;5077924;28;20240;-81
2022/01/25 09:44:55;;;;;;;86.70;31.70;;;4.70;99.90;;;;;;5051044;28;20253;-81
2022/01/25 09:47:22;;;;;;;86.63;31.90;;;4.70;99.90;;;;;;5052836;28;20233;-82
2022/01/25 09:49:49;;;;;;;92.17;34.23;;;4.80;99.90;;;;;;5047575;28;20303;-82
2022/01/25 09:52:27;;;;;;;84.60;32.67;;;4.80;99.90;;;;;;5048926;28;20248;-81
2022/01/25 09:55:01;;;;;;;91.57;32.70;;;4.80;99.90;;;;;;5054509;28;20214;-81
2022/01/25 09:57:28;;;;;;;90.07;31.43;;;4.70;99.90;;;;;;5050422;28;20233;-82
2022/01/25 09:59:56;;;;;;;89.70;33.63;;;4.80;99.90;;;;;;5055435;28;20212;-82
2022/01/25 10:02:50;;;;;;;85.27;31.23;;;4.90;99.90;;;;;;5046630;28;20271;-81
2022/01/25 10:05:33;;;;;;;88.50;33.30;;;4.90;99.90;;;;;;5051472;28;20549;-80
2022/01/25 10:08:12;;;;;;;83.67;29.73;;;5.00;99.90;;;;;;5053056;28;20210;-83
2022/01/25 10:10:43;;;;;;;83.30;31.10;;;4.90;99.90;;;;;;5049025;28;20353;-82
2022/01/25 10:13:18;;;;;;;88.50;32.87;;;4.90;99.90;;;;;;5056072;28;20299;-81
2022/01/25 10:15:45;;;;;;;99.80;35.10;;;5.00;99.90;;;;;;5051831;28;20827;-81
2022/01/25 10:18:20;;;;;;;87.57;32.50;;;5.00;99.90;;;;;;5053264;28;20319;-80
2022/01/25 10:20:50;;;;;;;80.43;30.87;;;5.00;99.90;;;;;;5051871;28;20226;-81
2022/01/25 10:23:30;;;;;;;82.73;31.80;;;5.00;99.90;;;;;;5051160;28;20212;-80
2022/01/25 10:26:02;;;;;;;89.83;33.93;;;4.90;99.90;;;;;;5051770;28;20276;-83
2022/01/25 10:28:55;;;;;;;86.20;32.67;;;4.90;99.90;;;;;;5052049;28;20218;-82
2022/01/25 10:31:37;;;;;;;87.93;31.40;;;4.90;99.90;;;;;;5057751;28;20756;-81
2022/01/25 10:34:06;;;;;;;84.27;31.93;;;4.90;99.90;;;;;;5047200;28;20217;-82
2022/01/25 10:36:44;;;;;;;87.20;32.17;;;4.80;99.90;;;;;;5043376;28;20232;-82
2022/01/25 10:39:23;;;;;;;92.87;31.27;;;4.80;99.90;;;;;;5057613;28;20222;-81
2022/01/25 10:41:50;;;;;;;88.93;32.20;;;4.90;99.90;;;;;;5045342;28;20216;-82
2022/01/25 10:44:17;;;;;;;87.13;31.70;;;4.90;99.90;;;;;;5058750;28;20240;-81
2022/01/25 10:46:46;;;;;;;93.13;32.63;;;4.90;99.90;;;;;;5068163;28;20928;-81
2022/01/25 10:49:15;;;;;;;80.70;31.17;;;4.90;99.90;;;;;;5049065;28;20234;-80
2022/01/25 10:51:46;;;;;;;84.77;31.87;;;4.80;99.90;;;;;;5053471;28;20218;-81
2022/01/25 10:54:16;;;;;;;90.07;33.33;;;5.00;99.90;;;;;;5071263;28;20208;-80
2022/01/25 10:56:47;;;;;;;86.40;31.43;;;4.90;99.90;;;;;;5069332;28;20280;-81
2022/01/25 10:59:24;;;;;;;86.50;30.40;;;4.90;99.90;;;;;;5043728;28;20274;-81
2022/01/25 11:01:55;;;;;;;84.50;31.43;;;4.90;99.90;;;;;;5054506;28;20217;-80
2022/01/25 11:04:26;;;;;;;92.03;32.97;;;4.90;99.90;;;;;;5048452;28;20207;-82
2022/01/25 11:07:04;;;;;;;85.37;32.07;;;4.90;99.90;;;;;;5060617;28;20207;-82
2022/01/25 11:09:42;;;;;;;84.73;33.03;;;4.90;99.90;;;;;;5074107;28;20261;-81
2022/01/25 11:12:13;;;;;;;88.53;33.40;;;5.00;99.90;;;;;;5080130;28;20208;-80
2022/01/25 11:14:53;;;;;;;87.20;32.50;;;5.00;99.90;;;;;;5075298;28;20752;-81
2022/01/25 11:17:21;;;;;;;94.67;35.03;;;5.00;99.90;;;;;;5047458;28;20317;-81
2022/01/25 11:19:48;;;;;;;89.43;31.97;;;5.00;99.90;;;;;;5074594;28;20663;-81
2022/01/25 11:22:20;;;;;;;97.27;34.90;;;5.00;99.90;;;;;;5054341;28;20200;-81
2022/01/25 11:24:56;;;;;;;91.93;33.67;;;5.00;99.90;;;;;;5076707;28;20670;-82
2022/01/25 11:27:26;;;;;;;88.20;32.53;;;5.00;99.90;;;;;;5077030;28;20289;-82
2022/01/25 11:29:57;;;;;;;93.13;34.50;;;5.10;99.90;;;;;;5058224;28;20209;-80
2022/01/25 11:32:32;;;;;;;97.60;32.63;;;5.10;99.90;;;;;;5078449;28;20216;-81
2022/01/25 11:35:00;;;;;;;95.43;33.47;;;5.10;99.90;;;;;;5071680;28;20293;-81
2022/01/25 11:37:39;;;;;;;85.13;32.13;;;5.10;99.90;;;;;;5050172;28;20236;-82
2022/01/25 11:40:38;;;;;;;87.93;32.67;;;5.10;99.90;;;;;;5073818;28;20648;-80
2022/01/25 11:43:13;;;;;;;84.33;31.60;;;5.10;99.90;;;;;;5048442;28;20210;-83
2022/01/25 11:45:49;;;;;;;86.93;31.90;;;5.10;99.90;;;;;;5057151;28;20240;-82
2022/01/25 11:48:34;;;;;;;84.27;30.97;;;5.10;99.90;;;;;;5047433;28;20220;-80
2022/01/25 11:51:02;;;;;;;80.97;31.17;;;5.10;99.90;;;;;;5046757;28;20208;-83
2022/01/25 11:53:42;;;;;;;88.97;32.07;;;5.10;99.90;;;;;;5059665;28;20208;-80
2022/01/25 11:56:12;;;;;;;90.77;32.47;;;5.10;99.90;;;;;;5056639;28;20312;-81
2022/01/25 11:58:51;;;;;;;88.67;31.80;;;5.10;99.90;;;;;;5057072;28;20290;-80
2022/01/25 12:01:21;;;;;;;85.37;32.77;;;5.10;99.90;;;;;;5056722;28;20302;-80
2022/01/25 12:03:56;;;;;;;93.03;33.63;;;5.10;99.90;;;;;;5047577;28;20227;-82
2022/01/25 12:06:30;;;;;;;86.13;30.90;;;5.10;99.90;;;;;;5052471;28;20564;-82
2022/01/25 12:11:58;;;;;;;88.60;32.13;;;5.10;99.90;;;;;;5052284;28;20744;-80
2022/01/25 12:14:29;;;;;;;83.77;32.17;;;5.10;99.90;;;;;;5053177;28;20205;-80
2022/01/25 12:17:02;;;;;;;80.13;30.77;;;5.10;99.90;;;;;;5054584;28;20332;-81
2022/01/25 12:19:54;;;;;;;85.97;31.70;;;5.10;99.90;;;;;;5047744;28;20802;-81
2022/01/25 12:22:28;;;;;;;92.40;32.33;;;5.10;99.90;;;;;;5048483;28;20212;-81
2022/01/25 12:25:15;;;;;;;89.43;32.07;;;5.10;99.90;;;;;;5054599;28;20217;-80
2022/01/25 12:28:03;;;;;;;95.30;33.53;;;5.10;99.90;;;;;;5054373;28;20300;-81
2022/01/25 12:30:32;;;;;;;88.80;31.53;;;5.10;99.90;;;;;;5056393;28;20707;-83
2022/01/25 12:33:04;;;;;;;89.47;32.67;;;5.10;99.90;;;;;;5052770;28;20226;-81
2022/01/25 12:36:09;;;;;;;81.77;31.27;;;5.00;99.90;;;;;;5064269;28;20672;-81
2022/01/25 12:38:47;;;;;;;84.03;31.13;;;5.00;99.90;;;;;;5021117;28;20235;-80
2022/01/25 12:41:20;;;;;;;85.77;32.90;;;5.00;99.90;;;;;;5044798;28;20262;-82
2022/01/25 12:43:53;;;;;;;92.80;32.83;;;5.00;99.90;;;;;;5059146;28;20240;-80
2022/01/25 12:46:34;;;;;;;88.50;31.80;;;5.00;99.90;;;;;;5055368;28;20245;-80
2022/01/25 12:49:17;;;;;;;96.70;33.33;;;5.00;99.90;;;;;;5069140;28;20203;-82
2022/01/25 12:51:48;;;;;;;90.27;31.53;;;5.00;99.90;;;;;;5068158;28;20712;-80
2022/01/25 12:54:15;;;;;;;88.10;32.70;;;5.10;99.90;;;;;;5060794;28;20214;-82
2022/01/25 12:56:45;;;;;;;89.13;31.53;;;5.10;99.90;;;;;;5071148;28;20562;-82
2022/01/25 12:59:26;;;;;;;89.77;30.87;;;5.10;99.90;;;;;;5072178;28;20596;-81
2022/01/25 13:01:58;;;;;;;84.10;32.50;;;5.00;99.90;;;;;;5051487;28;20227;-81
2022/01/25 13:04:25;;;;;;;94.27;33.97;;;5.10;99.90;;;;;;5062778;28;20212;-82
2022/01/25 13:07:13;;;;;;;84.60;30.87;;;5.00;99.90;;;;;;5055613;28;20306;-81
2022/01/25 13:09:45;;;;;;;84.60;32.80;;;5.10;99.90;;;;;;5054198;28;20203;-83
2022/01/25 13:12:16;;;;;;;88.37;32.07;;;5.10;99.90;;;;;;5072006;28;20205;-80
2022/01/25 13:14:49;;;;;;;92.33;33.07;;;5.10;99.90;;;;;;5055933;28;20208;-81
2022/01/25 13:17:21;;;;;;;90.10;31.87;;;5.10;99.90;;;;;;5070792;28;20236;-83
2022/01/25 13:19:59;;;;;;;87.07;32.40;;;5.10;99.90;;;;;;5044224;28;20287;-82
2022/01/25 13:22:33;;;;;;;91.60;31.33;;;5.10;99.90;;;;;;5049020;28;20211;-82
2022/01/25 13:25:24;;;;;;;83.53;31.77;;;5.10;99.90;;;;;;5068437;28;20233;-81
2022/01/25 13:27:55;;;;;;;89.43;32.83;;;5.10;99.90;;;;;;5055739;28;20294;-82
2022/01/25 13:30:41;;;;;;;88.43;31.63;;;5.10;99.90;;;;;;5063593;28;20837;-82
2022/01/25 13:33:10;;;;;;;85.57;31.83;;;5.10;99.90;;;;;;5055439;28;20724;-83
2022/01/25 13:35:41;;;;;;;88.83;30.93;;;5.00;99.90;;;;;;5076780;28;20321;-84
2022/01/25 13:38:12;;;;;;;84.13;32.27;;;5.10;99.90;;;;;;5051131;28;20235;-82
2022/01/25 13:40:47;;;;;;;82.33;30.90;;;5.10;99.90;;;;;;5052824;28;20200;-81
2022/01/25 13:45:42;;;;;;;90.37;33.03;;;5.10;99.90;;;;;;5049411;28;20207;-82
2022/01/25 13:46:20;;;;;;;89.17;31.47;;;5.10;99.90;;;;;;5074507;28;20208;-82
2022/01/25 13:48:48;;;;;;;88.20;30.30;;;5.10;99.90;;;;;;5066152;28;20761;-81
2022/01/25 13:51:18;;;;;;;86.37;31.43;;;5.10;99.90;;;;;;5037568;28;20218;-82
2022/01/25 13:53:56;;;;;;;88.13;31.57;;;5.00;99.90;;;;;;5071103;28;21091;-78
2022/01/25 13:56:30;;;;;;;84.53;31.60;;;5.00;99.90;;;;;;5055393;28;20280;-82
2022/01/25 13:58:58;;;;;;;91.70;34.00;;;4.90;99.90;;;;;;5050441;28;20229;-81
2022/01/25 14:01:27;;;;;;;89.33;31.80;;;4.90;99.90;;;;;;5073124;28;20644;-83
2022/01/25 14:03:56;;;;;;;86.60;30.40;;;4.90;99.90;;;;;;5073334;28;20305;-81
2022/01/25 14:06:40;;;;;;;88.03;31.43;;;5.10;99.90;;;;;;5057171;28;20204;-81
2022/01/25 14:09:54;;;;;;;88.93;31.17;;;4.90;99.90;;;;;;5051297;28;20675;-82
2022/01/25 14:23:32;;;;;;;92.40;30.33;;;4.90;99.90;;;;;;5071662;28;20207;-80
2022/01/25 14:26:07;;;;;;;85.43;29.90;;;4.90;99.90;;;;;;5056255;28;20209;-83
2022/01/25 14:28:43;;;;;;;90.67;32.17;;;4.90;99.90;;;;;;5066829;28;20244;-81
2022/01/25 14:31:25;;;;;;;81.83;30.13;;;4.90;99.90;;;;;;5070026;28;20200;-82
2022/01/25 14:34:01;;;;;;;85.23;31.90;;;5.00;99.90;;;;;;5069417;28;20211;-81
2022/01/25 14:36:30;;;;;;;87.57;30.27;;;4.90;99.90;;;;;;5058029;28;20211;-81
2022/01/25 14:39:00;;;;;;;93.13;32.13;;;4.80;99.90;;;;;;5063647;28;20717;-81
2022/01/25 14:41:31;;;;;;;86.23;30.73;;;4.90;99.90;;;;;;5064198;28;20208;-80
2022/01/25 14:44:04;;;;;;;80.23;29.50;;;4.90;99.90;;;;;;5072892;28;20289;-81
2022/01/25 14:46:38;;;;;;;91.13;34.53;;;4.80;99.90;;;;;;5072976;28;20612;-81
2022/01/25 14:49:18;;;;;;;77.87;29.07;;;4.90;99.90;;;;;;5050008;28;20671;-82
2022/01/25 14:51:48;;;;;;;82.17;30.80;;;4.80;99.90;;;;;;5065908;28;20208;-81
2022/01/25 14:54:18;;;;;;;81.93;29.83;;;4.80;99.90;;;;;;5072401;28;20262;-80